Terminal Aerodrome Forecast
Issued by NWS King Salmon, AK

Current Version | Previous Version | Text Only | Print | Product List | Glossary On
Versions: 1 2 3 4 5 6 7 8 9 10 11 12 13 14 15
000
FTAK31 PANC 282343
TAFAKN
TAF
PAKN 282343Z 2900/2924 15009KT P6SM -SHRA SCT030 BKN050
      TEMPO 2900/2902 17015G25KT BKN030
     FM290600 14006KT P6SM SCT025 BKN050
     FM292000 12012G20KT P6SM VCSH SCT030 BKN060=

USA.gov is the U.S. government's official web portal to all federal, state and local government web resources and services.